Valdez, Alaska
Current Conditions -  °F | °C
As of 6:56 PM on Friday 28 Nov 2014 (Local Time) from PAVD Reporting Station
Broken Clouds Broken Clouds  
Wind Chill: 21°   Ceiling: 8000
Heat Index: 21°   Visibility: 10mi
Dew Point: 12°   Wind: 3mph
Humidity: 68%   Direction: 90°E
Pressure: 30.2"   Gusts: NA
Location:  61.13°N, 146.35°W
Report Text: PAVD 290356Z 09003KT 10SM FEW035 BKN080 BKN120 M06/M11 A3020 RMK AO1 0347Z WEA: NONE TWR WND 06006KT
Loading
Personal Weather Stations






























Interactive Weather Map New forecast layout! Learn more

10-Day Weather Forecast

Advertisements
Track Severe Weather on mobile